sensor_id;sensor_type;location;lat;lon;timestamp;P1;durP1;ratioP1;P2;durP2;ratioP2
70549;SDS011;58101;48.658;2.328;2022-12-29T00:01:39;8.50;;;1.60;;
70549;SDS011;58101;48.658;2.328;2022-12-29T00:04:04;5.88;;;1.40;;
70549;SDS011;58101;48.658;2.328;2022-12-29T00:06:31;5.55;;;1.30;;
70549;SDS011;58101;48.658;2.328;2022-12-29T00:08:57;5.97;;;1.20;;
70549;SDS011;58101;48.658;2.328;2022-12-29T00:11:24;7.40;;;1.35;;
70549;SDS011;58101;48.658;2.328;2022-12-29T00:13:51;6.53;;;1.50;;
70549;SDS011;58101;48.658;2.328;2022-12-29T00:16:37;7.47;;;1.45;;
70549;SDS011;58101;48.658;2.328;2022-12-29T00:19:04;7.25;;;1.70;;
70549;SDS011;58101;48.658;2.328;2022-12-29T00:21:30;6.22;;;1.60;;
70549;SDS011;58101;48.658;2.328;2022-12-29T00:24:15;9.23;;;1.63;;
70549;SDS011;58101;48.658;2.328;2022-12-29T00:26:53;7.45;;;1.60;;
70549;SDS011;58101;48.658;2.328;2022-12-29T00:29:41;7.60;;;1.60;;
70549;SDS011;58101;48.658;2.328;2022-12-29T00:32:25;11.90;;;1.95;;
70549;SDS011;58101;48.658;2.328;2022-12-29T00:35:10;8.98;;;1.80;;
70549;SDS011;58101;48.658;2.328;2022-12-29T00:37:40;9.13;;;1.75;;
70549;SDS011;58101;48.658;2.328;2022-12-29T00:40:26;6.65;;;1.50;;
70549;SDS011;58101;48.658;2.328;2022-12-29T00:43:10;10.75;;;1.60;;
70549;SDS011;58101;48.658;2.328;2022-12-29T00:45:54;7.32;;;1.60;;
70549;SDS011;58101;48.658;2.328;2022-12-29T00:48:20;6.65;;;1.67;;
70549;SDS011;58101;48.658;2.328;2022-12-29T00:51:05;9.90;;;1.70;;
70549;SDS011;58101;48.658;2.328;2022-12-29T00:53:32;8.80;;;1.50;;
70549;SDS011;58101;48.658;2.328;2022-12-29T00:55:57;6.40;;;1.50;;
70549;SDS011;58101;48.658;2.328;2022-12-29T00:58:23;6.13;;;1.50;;
70549;SDS011;58101;48.658;2.328;2022-12-29T01:00:51;9.15;;;2.03;;
70549;SDS011;58101;48.658;2.328;2022-12-29T01:03:17;6.35;;;1.45;;
70549;SDS011;58101;48.658;2.328;2022-12-29T01:05:42;8.65;;;1.65;;
70549;SDS011;58101;48.658;2.328;2022-12-29T01:08:08;9.18;;;1.55;;
70549;SDS011;58101;48.658;2.328;2022-12-29T01:10:33;6.65;;;1.50;;
70549;SDS011;58101;48.658;2.328;2022-12-29T01:12:59;9.55;;;1.42;;
70549;SDS011;58101;48.658;2.328;2022-12-29T01:15:24;8.50;;;1.60;;
70549;SDS011;58101;48.658;2.328;2022-12-29T01:17:50;9.70;;;1.38;;
70549;SDS011;58101;48.658;2.328;2022-12-29T01:20:16;10.30;;;1.85;;
70549;SDS011;58101;48.658;2.328;2022-12-29T01:22:41;5.35;;;1.27;;
70549;SDS011;58101;48.658;2.328;2022-12-29T01:25:08;6.00;;;1.30;;
70549;SDS011;58101;48.658;2.328;2022-12-29T01:27:34;9.93;;;1.30;;
70549;SDS011;58101;48.658;2.328;2022-12-29T01:29:59;6.15;;;1.40;;
70549;SDS011;58101;48.658;2.328;2022-12-29T01:32:25;7.72;;;1.30;;
70549;SDS011;58101;48.658;2.328;2022-12-29T01:34:51;5.88;;;1.35;;
70549;SDS011;58101;48.658;2.328;2022-12-29T01:37:16;6.82;;;1.25;;
70549;SDS011;58101;48.658;2.328;2022-12-29T01:39:42;6.72;;;1.45;;
70549;SDS011;58101;48.658;2.328;2022-12-29T01:42:15;7.45;;;1.38;;
70549;SDS011;58101;48.658;2.328;2022-12-29T01:44:50;7.85;;;1.58;;
70549;SDS011;58101;48.658;2.328;2022-12-29T01:50:01;5.78;;;1.17;;
70549;SDS011;58101;48.658;2.328;2022-12-29T01:52:38;9.38;;;1.40;;
70549;SDS011;58101;48.658;2.328;2022-12-29T01:55:07;5.72;;;1.30;;
70549;SDS011;58101;48.658;2.328;2022-12-29T02:00:07;6.38;;;1.30;;
70549;SDS011;58101;48.658;2.328;2022-12-29T02:02:34;11.20;;;1.58;;
70549;SDS011;58101;48.658;2.328;2022-12-29T02:05:03;6.05;;;1.33;;
70549;SDS011;58101;48.658;2.328;2022-12-29T02:07:36;9.40;;;1.45;;
70549;SDS011;58101;48.658;2.328;2022-12-29T02:14:55;6.25;;;1.10;;
70549;SDS011;58101;48.658;2.328;2022-12-29T02:17:38;6.47;;;1.00;;
70549;SDS011;58101;48.658;2.328;2022-12-29T02:34:40;4.93;;;1.02;;
70549;SDS011;58101;48.658;2.328;2022-12-29T02:37:12;4.25;;;1.13;;
70549;SDS011;58101;48.658;2.328;2022-12-29T02:42:44;4.90;;;0.98;;
70549;SDS011;58101;48.658;2.328;2022-12-29T02:48:04;5.63;;;1.00;;
70549;SDS011;58101;48.658;2.328;2022-12-29T02:53:34;6.80;;;0.98;;
70549;SDS011;58101;48.658;2.328;2022-12-29T02:56:19;7.32;;;1.30;;
70549;SDS011;58101;48.658;2.328;2022-12-29T02:58:44;7.00;;;1.42;;
70549;SDS011;58101;48.658;2.328;2022-12-29T03:15:10;6.78;;;0.60;;
70549;SDS011;58101;48.658;2.328;2022-12-29T03:20:54;4.85;;;0.68;;
70549;SDS011;58101;48.658;2.328;2022-12-29T03:23:26;4.18;;;0.57;;
70549;SDS011;58101;48.658;2.328;2022-12-29T03:25:53;4.38;;;0.70;;
70549;SDS011;58101;48.658;2.328;2022-12-29T03:28:24;4.82;;;0.70;;
70549;SDS011;58101;48.658;2.328;2022-12-29T03:30:54;4.80;;;0.65;;
70549;SDS011;58101;48.658;2.328;2022-12-29T03:33:23;3.20;;;0.60;;
70549;SDS011;58101;48.658;2.328;2022-12-29T03:35:52;3.15;;;0.65;;
70549;SDS011;58101;48.658;2.328;2022-12-29T03:41:18;4.53;;;0.75;;
70549;SDS011;58101;48.658;2.328;2022-12-29T03:43:48;1.60;;;0.50;;
70549;SDS011;58101;48.658;2.328;2022-12-29T03:46:14;4.60;;;0.70;;
70549;SDS011;58101;48.658;2.328;2022-12-29T03:48:39;3.00;;;0.60;;
70549;SDS011;58101;48.658;2.328;2022-12-29T03:51:05;3.58;;;0.70;;
70549;SDS011;58101;48.658;2.328;2022-12-29T03:53:31;6.25;;;0.80;;
70549;SDS011;58101;48.658;2.328;2022-12-29T03:55:56;5.05;;;0.77;;
70549;SDS011;58101;48.658;2.328;2022-12-29T03:58:22;4.13;;;0.70;;
70549;SDS011;58101;48.658;2.328;2022-12-29T04:00:48;4.00;;;0.80;;
70549;SDS011;58101;48.658;2.328;2022-12-29T04:03:13;4.45;;;0.80;;
70549;SDS011;58101;48.658;2.328;2022-12-29T04:05:39;5.47;;;0.77;;
70549;SDS011;58101;48.658;2.328;2022-12-29T04:08:05;4.80;;;0.70;;
70549;SDS011;58101;48.658;2.328;2022-12-29T04:10:30;4.93;;;0.60;;
70549;SDS011;58101;48.658;2.328;2022-12-29T04:12:56;4.75;;;0.90;;
70549;SDS011;58101;48.658;2.328;2022-12-29T04:15:21;6.28;;;0.68;;
70549;SDS011;58101;48.658;2.328;2022-12-29T04:17:49;3.92;;;0.70;;
70549;SDS011;58101;48.658;2.328;2022-12-29T04:20:14;5.90;;;0.95;;
70549;SDS011;58101;48.658;2.328;2022-12-29T04:22:59;3.72;;;0.70;;
70549;SDS011;58101;48.658;2.328;2022-12-29T04:25:30;3.38;;;0.80;;
70549;SDS011;58101;48.658;2.328;2022-12-29T04:27:56;4.30;;;0.60;;
70549;SDS011;58101;48.658;2.328;2022-12-29T04:30:21;3.63;;;0.68;;
70549;SDS011;58101;48.658;2.328;2022-12-29T04:32:47;6.53;;;0.77;;
70549;SDS011;58101;48.658;2.328;2022-12-29T04:35:13;6.07;;;0.57;;
70549;SDS011;58101;48.658;2.328;2022-12-29T04:37:38;7.28;;;0.90;;
70549;SDS011;58101;48.658;2.328;2022-12-29T04:40:04;3.05;;;0.70;;
70549;SDS011;58101;48.658;2.328;2022-12-29T04:42:30;6.88;;;0.70;;
70549;SDS011;58101;48.658;2.328;2022-12-29T04:44:56;6.82;;;0.73;;
70549;SDS011;58101;48.658;2.328;2022-12-29T04:47:22;5.90;;;0.70;;
70549;SDS011;58101;48.658;2.328;2022-12-29T04:49:48;5.50;;;0.90;;
70549;SDS011;58101;48.658;2.328;2022-12-29T04:52:13;5.97;;;0.98;;
70549;SDS011;58101;48.658;2.328;2022-12-29T04:54:39;11.27;;;1.00;;
70549;SDS011;58101;48.658;2.328;2022-12-29T04:57:05;7.45;;;0.95;;
70549;SDS011;58101;48.658;2.328;2022-12-29T04:59:30;7.22;;;0.80;;
70549;SDS011;58101;48.658;2.328;2022-12-29T05:01:56;7.40;;;0.90;;
70549;SDS011;58101;48.658;2.328;2022-12-29T05:04:21;5.00;;;0.90;;
70549;SDS011;58101;48.658;2.328;2022-12-29T05:06:47;6.78;;;0.98;;
70549;SDS011;58101;48.658;2.328;2022-12-29T05:09:13;6.15;;;1.00;;
70549;SDS011;58101;48.658;2.328;2022-12-29T05:11:38;4.03;;;0.93;;
70549;SDS011;58101;48.658;2.328;2022-12-29T05:14:04;6.93;;;0.80;;
70549;SDS011;58101;48.658;2.328;2022-12-29T05:16:29;8.18;;;1.10;;
70549;SDS011;58101;48.658;2.328;2022-12-29T05:18:55;8.80;;;1.10;;
70549;SDS011;58101;48.658;2.328;2022-12-29T05:21:21;7.18;;;1.00;;
70549;SDS011;58101;48.658;2.328;2022-12-29T05:23:46;6.72;;;1.17;;
70549;SDS011;58101;48.658;2.328;2022-12-29T05:26:12;7.65;;;1.10;;
70549;SDS011;58101;48.658;2.328;2022-12-29T05:28:37;6.38;;;1.10;;
70549;SDS011;58101;48.658;2.328;2022-12-29T05:31:03;3.88;;;0.77;;
70549;SDS011;58101;48.658;2.328;2022-12-29T05:33:29;9.43;;;1.13;;
70549;SDS011;58101;48.658;2.328;2022-12-29T05:35:54;6.55;;;0.90;;
70549;SDS011;58101;48.658;2.328;2022-12-29T05:38:20;5.40;;;0.93;;
70549;SDS011;58101;48.658;2.328;2022-12-29T05:40:45;11.23;;;1.00;;
70549;SDS011;58101;48.658;2.328;2022-12-29T05:43:11;11.60;;;1.30;;
70549;SDS011;58101;48.658;2.328;2022-12-29T05:45:36;11.10;;;1.27;;
70549;SDS011;58101;48.658;2.328;2022-12-29T05:48:02;10.88;;;1.38;;
70549;SDS011;58101;48.658;2.328;2022-12-29T05:50:28;13.98;;;1.23;;
70549;SDS011;58101;48.658;2.328;2022-12-29T05:52:54;10.82;;;1.02;;
70549;SDS011;58101;48.658;2.328;2022-12-29T05:55:20;11.27;;;1.30;;
70549;SDS011;58101;48.658;2.328;2022-12-29T05:57:45;10.27;;;1.33;;
70549;SDS011;58101;48.658;2.328;2022-12-29T06:00:11;10.20;;;1.27;;
70549;SDS011;58101;48.658;2.328;2022-12-29T06:02:37;10.23;;;1.08;;
70549;SDS011;58101;48.658;2.328;2022-12-29T06:05:03;8.88;;;1.13;;
70549;SDS011;58101;48.658;2.328;2022-12-29T06:07:28;12.35;;;1.90;;
70549;SDS011;58101;48.658;2.328;2022-12-29T06:09:54;9.68;;;1.10;;
70549;SDS011;58101;48.658;2.328;2022-12-29T06:12:20;9.43;;;1.13;;
70549;SDS011;58101;48.658;2.328;2022-12-29T06:14:45;12.20;;;1.20;;
70549;SDS011;58101;48.658;2.328;2022-12-29T06:17:11;12.65;;;1.60;;
70549;SDS011;58101;48.658;2.328;2022-12-29T06:19:36;10.77;;;1.30;;
70549;SDS011;58101;48.658;2.328;2022-12-29T06:22:02;13.65;;;1.50;;
70549;SDS011;58101;48.658;2.328;2022-12-29T06:24:28;10.02;;;1.35;;
70549;SDS011;58101;48.658;2.328;2022-12-29T06:26:54;8.30;;;0.90;;
70549;SDS011;58101;48.658;2.328;2022-12-29T06:29:19;13.55;;;1.05;;
70549;SDS011;58101;48.658;2.328;2022-12-29T06:31:45;8.15;;;1.20;;
70549;SDS011;58101;48.658;2.328;2022-12-29T06:34:11;9.52;;;1.15;;
70549;SDS011;58101;48.658;2.328;2022-12-29T06:36:37;9.98;;;1.13;;
70549;SDS011;58101;48.658;2.328;2022-12-29T06:39:03;11.10;;;1.23;;
70549;SDS011;58101;48.658;2.328;2022-12-29T06:41:29;10.05;;;1.52;;
70549;SDS011;58101;48.658;2.328;2022-12-29T06:43:55;9.05;;;1.60;;
70549;SDS011;58101;48.658;2.328;2022-12-29T06:46:20;11.10;;;1.30;;
70549;SDS011;58101;48.658;2.328;2022-12-29T06:48:46;12.95;;;1.17;;
70549;SDS011;58101;48.658;2.328;2022-12-29T06:51:12;11.68;;;1.50;;
70549;SDS011;58101;48.658;2.328;2022-12-29T06:53:37;12.23;;;1.45;;
70549;SDS011;58101;48.658;2.328;2022-12-29T06:56:03;7.47;;;1.27;;
70549;SDS011;58101;48.658;2.328;2022-12-29T06:58:29;9.20;;;1.20;;
70549;SDS011;58101;48.658;2.328;2022-12-29T07:00:55;13.20;;;1.55;;
70549;SDS011;58101;48.658;2.328;2022-12-29T07:03:20;11.00;;;1.33;;
70549;SDS011;58101;48.658;2.328;2022-12-29T07:05:46;8.48;;;1.00;;
70549;SDS011;58101;48.658;2.328;2022-12-29T07:08:11;9.02;;;1.33;;
70549;SDS011;58101;48.658;2.328;2022-12-29T07:10:37;12.07;;;1.20;;
70549;SDS011;58101;48.658;2.328;2022-12-29T07:13:02;10.30;;;1.42;;
70549;SDS011;58101;48.658;2.328;2022-12-29T07:15:28;9.25;;;1.17;;
70549;SDS011;58101;48.658;2.328;2022-12-29T07:17:54;11.13;;;1.88;;
70549;SDS011;58101;48.658;2.328;2022-12-29T07:20:19;10.63;;;1.25;;
70549;SDS011;58101;48.658;2.328;2022-12-29T07:22:45;7.07;;;1.00;;
70549;SDS011;58101;48.658;2.328;2022-12-29T07:25:12;9.75;;;1.30;;
70549;SDS011;58101;48.658;2.328;2022-12-29T07:27:37;8.80;;;1.15;;
70549;SDS011;58101;48.658;2.328;2022-12-29T07:30:03;9.77;;;1.30;;
70549;SDS011;58101;48.658;2.328;2022-12-29T07:32:31;9.25;;;1.38;;
70549;SDS011;58101;48.658;2.328;2022-12-29T07:34:58;12.13;;;1.35;;
70549;SDS011;58101;48.658;2.328;2022-12-29T07:37:24;17.60;;;1.67;;
70549;SDS011;58101;48.658;2.328;2022-12-29T07:39:49;13.93;;;1.88;;
70549;SDS011;58101;48.658;2.328;2022-12-29T07:42:15;12.55;;;1.60;;
70549;SDS011;58101;48.658;2.328;2022-12-29T07:44:41;12.38;;;1.63;;
70549;SDS011;58101;48.658;2.328;2022-12-29T07:47:06;11.75;;;1.50;;
70549;SDS011;58101;48.658;2.328;2022-12-29T07:49:32;10.85;;;1.85;;
70549;SDS011;58101;48.658;2.328;2022-12-29T07:52:01;10.25;;;1.70;;
70549;SDS011;58101;48.658;2.328;2022-12-29T07:54:27;9.95;;;1.30;;
70549;SDS011;58101;48.658;2.328;2022-12-29T07:56:53;12.88;;;1.90;;
70549;SDS011;58101;48.658;2.328;2022-12-29T07:59:19;10.93;;;1.20;;
70549;SDS011;58101;48.658;2.328;2022-12-29T08:01:45;11.25;;;1.60;;
70549;SDS011;58101;48.658;2.328;2022-12-29T08:04:10;12.68;;;1.67;;
70549;SDS011;58101;48.658;2.328;2022-12-29T08:06:36;10.95;;;1.40;;
70549;SDS011;58101;48.658;2.328;2022-12-29T08:09:02;12.02;;;1.70;;
70549;SDS011;58101;48.658;2.328;2022-12-29T08:11:29;12.02;;;1.70;;
70549;SDS011;58101;48.658;2.328;2022-12-29T08:13:54;10.70;;;1.67;;
70549;SDS011;58101;48.658;2.328;2022-12-29T08:16:20;11.43;;;1.60;;
70549;SDS011;58101;48.658;2.328;2022-12-29T08:18:45;10.50;;;1.40;;
70549;SDS011;58101;48.658;2.328;2022-12-29T08:21:12;12.57;;;1.83;;
70549;SDS011;58101;48.658;2.328;2022-12-29T08:23:38;14.10;;;1.70;;
70549;SDS011;58101;48.658;2.328;2022-12-29T08:26:04;15.15;;;1.67;;
70549;SDS011;58101;48.658;2.328;2022-12-29T08:28:30;16.40;;;1.75;;
70549;SDS011;58101;48.658;2.328;2022-12-29T08:30:57;14.13;;;1.40;;
70549;SDS011;58101;48.658;2.328;2022-12-29T08:33:24;13.13;;;2.03;;
70549;SDS011;58101;48.658;2.328;2022-12-29T08:35:50;12.02;;;1.67;;
70549;SDS011;58101;48.658;2.328;2022-12-29T08:38:16;19.60;;;2.10;;
70549;SDS011;58101;48.658;2.328;2022-12-29T08:40:42;15.70;;;1.70;;
70549;SDS011;58101;48.658;2.328;2022-12-29T08:43:09;16.05;;;1.90;;
70549;SDS011;58101;48.658;2.328;2022-12-29T08:45:35;15.38;;;1.95;;
70549;SDS011;58101;48.658;2.328;2022-12-29T08:48:00;11.70;;;1.80;;
70549;SDS011;58101;48.658;2.328;2022-12-29T08:50:26;13.70;;;1.45;;
70549;SDS011;58101;48.658;2.328;2022-12-29T08:52:52;16.70;;;1.45;;
70549;SDS011;58101;48.658;2.328;2022-12-29T08:55:18;11.45;;;1.80;;
70549;SDS011;58101;48.658;2.328;2022-12-29T08:57:43;15.50;;;2.15;;
70549;SDS011;58101;48.658;2.328;2022-12-29T09:00:09;11.45;;;1.60;;
70549;SDS011;58101;48.658;2.328;2022-12-29T09:02:35;11.05;;;1.38;;
70549;SDS011;58101;48.658;2.328;2022-12-29T09:05:01;14.63;;;1.50;;
70549;SDS011;58101;48.658;2.328;2022-12-29T09:07:26;12.68;;;1.52;;
70549;SDS011;58101;48.658;2.328;2022-12-29T09:09:52;13.15;;;1.50;;
70549;SDS011;58101;48.658;2.328;2022-12-29T09:12:18;11.05;;;1.60;;
70549;SDS011;58101;48.658;2.328;2022-12-29T09:14:45;16.73;;;1.75;;
70549;SDS011;58101;48.658;2.328;2022-12-29T09:17:11;9.50;;;1.42;;
70549;SDS011;58101;48.658;2.328;2022-12-29T09:19:55;12.15;;;2.08;;
70549;SDS011;58101;48.658;2.328;2022-12-29T09:22:21;12.70;;;1.67;;
70549;SDS011;58101;48.658;2.328;2022-12-29T09:24:46;11.95;;;1.75;;
70549;SDS011;58101;48.658;2.328;2022-12-29T09:27:12;18.77;;;1.90;;
70549;SDS011;58101;48.658;2.328;2022-12-29T09:29:37;15.90;;;2.05;;
70549;SDS011;58101;48.658;2.328;2022-12-29T09:32:03;16.13;;;2.10;;
70549;SDS011;58101;48.658;2.328;2022-12-29T09:34:29;14.05;;;2.05;;
70549;SDS011;58101;48.658;2.328;2022-12-29T09:36:54;12.23;;;1.83;;
70549;SDS011;58101;48.658;2.328;2022-12-29T09:39:21;15.35;;;1.77;;
70549;SDS011;58101;48.658;2.328;2022-12-29T09:41:49;16.92;;;1.88;;
70549;SDS011;58101;48.658;2.328;2022-12-29T09:47:16;20.77;;;2.35;;
70549;SDS011;58101;48.658;2.328;2022-12-29T09:49:48;14.23;;;1.88;;
70549;SDS011;58101;48.658;2.328;2022-12-29T09:52:25;10.30;;;1.40;;
70549;SDS011;58101;48.658;2.328;2022-12-29T09:54:57;17.83;;;2.00;;
70549;SDS011;58101;48.658;2.328;2022-12-29T09:57:36;12.93;;;1.75;;
70549;SDS011;58101;48.658;2.328;2022-12-29T10:00:05;11.05;;;1.55;;
70549;SDS011;58101;48.658;2.328;2022-12-29T10:02:38;14.68;;;2.30;;
70549;SDS011;58101;48.658;2.328;2022-12-29T10:05:16;13.40;;;1.70;;
70549;SDS011;58101;48.658;2.328;2022-12-29T10:07:52;15.20;;;1.90;;
70549;SDS011;58101;48.658;2.328;2022-12-29T10:10:31;15.80;;;1.85;;
70549;SDS011;58101;48.658;2.328;2022-12-29T10:21:28;13.38;;;1.70;;
70549;SDS011;58101;48.658;2.328;2022-12-29T10:24:12;13.20;;;1.63;;
70549;SDS011;58101;48.658;2.328;2022-12-29T10:26:42;16.75;;;1.88;;
70549;SDS011;58101;48.658;2.328;2022-12-29T10:29:13;12.15;;;1.70;;
70549;SDS011;58101;48.658;2.328;2022-12-29T10:31:50;11.80;;;1.60;;
70549;SDS011;58101;48.658;2.328;2022-12-29T10:34:28;17.02;;;2.22;;
70549;SDS011;58101;48.658;2.328;2022-12-29T10:40:02;11.77;;;1.75;;
70549;SDS011;58101;48.658;2.328;2022-12-29T10:42:39;13.93;;;1.83;;
70549;SDS011;58101;48.658;2.328;2022-12-29T10:45:12;13.82;;;2.08;;
70549;SDS011;58101;48.658;2.328;2022-12-29T10:47:40;11.93;;;1.70;;
70549;SDS011;58101;48.658;2.328;2022-12-29T10:50:15;14.02;;;1.70;;
70549;SDS011;58101;48.658;2.328;2022-12-29T10:52:40;13.63;;;2.10;;
70549;SDS011;58101;48.658;2.328;2022-12-29T10:55:13;12.68;;;1.67;;
70549;SDS011;58101;48.658;2.328;2022-12-29T10:57:44;16.33;;;2.05;;
70549;SDS011;58101;48.658;2.328;2022-12-29T11:07:59;12.30;;;2.25;;
70549;SDS011;58101;48.658;2.328;2022-12-29T11:13:25;12.73;;;2.47;;
70549;SDS011;58101;48.658;2.328;2022-12-29T11:15:51;19.42;;;2.20;;
70549;SDS011;58101;48.658;2.328;2022-12-29T11:18:26;15.00;;;1.80;;
70549;SDS011;58101;48.658;2.328;2022-12-29T11:21:03;13.90;;;2.13;;
70549;SDS011;58101;48.658;2.328;2022-12-29T11:28:36;14.52;;;2.00;;
70549;SDS011;58101;48.658;2.328;2022-12-29T11:31:06;15.07;;;2.10;;
70549;SDS011;58101;48.658;2.328;2022-12-29T11:33:36;14.35;;;1.98;;
70549;SDS011;58101;48.658;2.328;2022-12-29T11:36:17;17.20;;;2.00;;
70549;SDS011;58101;48.658;2.328;2022-12-29T11:38:46;14.77;;;2.30;;
70549;SDS011;58101;48.658;2.328;2022-12-29T11:41:24;14.32;;;2.17;;
70549;SDS011;58101;48.658;2.328;2022-12-29T11:43:53;15.50;;;2.30;;
70549;SDS011;58101;48.658;2.328;2022-12-29T11:46:28;16.05;;;2.40;;
70549;SDS011;58101;48.658;2.328;2022-12-29T11:48:57;16.77;;;3.78;;
70549;SDS011;58101;48.658;2.328;2022-12-29T11:51:26;15.77;;;2.03;;
70549;SDS011;58101;48.658;2.328;2022-12-29T11:53:58;14.35;;;1.75;;
70549;SDS011;58101;48.658;2.328;2022-12-29T11:56:34;15.48;;;2.45;;
70549;SDS011;58101;48.658;2.328;2022-12-29T12:02:13;14.23;;;2.33;;
70549;SDS011;58101;48.658;2.328;2022-12-29T12:05:01;12.05;;;2.05;;
70549;SDS011;58101;48.658;2.328;2022-12-29T12:07:42;16.45;;;1.83;;
70549;SDS011;58101;48.658;2.328;2022-12-29T12:10:18;16.45;;;1.88;;
70549;SDS011;58101;48.658;2.328;2022-12-29T12:15:46;14.70;;;1.83;;
70549;SDS011;58101;48.658;2.328;2022-12-29T12:18:24;15.85;;;1.85;;
70549;SDS011;58101;48.658;2.328;2022-12-29T12:20:56;13.80;;;2.20;;
70549;SDS011;58101;48.658;2.328;2022-12-29T12:26:15;13.93;;;1.90;;
70549;SDS011;58101;48.658;2.328;2022-12-29T12:28:56;11.63;;;2.05;;
70549;SDS011;58101;48.658;2.328;2022-12-29T12:34:30;14.65;;;1.95;;
70549;SDS011;58101;48.658;2.328;2022-12-29T12:42:23;14.15;;;1.80;;
70549;SDS011;58101;48.658;2.328;2022-12-29T12:47:59;13.52;;;1.80;;
70549;SDS011;58101;48.658;2.328;2022-12-29T13:01:56;16.98;;;2.15;;
70549;SDS011;58101;48.658;2.328;2022-12-29T13:04:57;14.23;;;2.13;;
70549;SDS011;58101;48.658;2.328;2022-12-29T13:08:00;14.68;;;1.88;;
70549;SDS011;58101;48.658;2.328;2022-12-29T13:13:43;11.40;;;1.90;;
70549;SDS011;58101;48.658;2.328;2022-12-29T13:17:03;13.80;;;1.83;;
70549;SDS011;58101;48.658;2.328;2022-12-29T13:27:12;12.10;;;1.90;;
70549;SDS011;58101;48.658;2.328;2022-12-29T13:29:47;15.95;;;1.92;;
70549;SDS011;58101;48.658;2.328;2022-12-29T13:35:13;14.45;;;2.42;;
70549;SDS011;58101;48.658;2.328;2022-12-29T13:38:07;15.55;;;2.00;;
70549;SDS011;58101;48.658;2.328;2022-12-29T13:40:36;15.02;;;2.22;;
70549;SDS011;58101;48.658;2.328;2022-12-29T13:43:06;13.23;;;1.95;;
70549;SDS011;58101;48.658;2.328;2022-12-29T13:50:36;11.73;;;1.60;;
70549;SDS011;58101;48.658;2.328;2022-12-29T13:53:11;11.75;;;1.98;;
70549;SDS011;58101;48.658;2.328;2022-12-29T14:03:52;11.27;;;1.45;;
70549;SDS011;58101;48.658;2.328;2022-12-29T14:06:26;11.68;;;1.73;;
70549;SDS011;58101;48.658;2.328;2022-12-29T14:08:55;11.57;;;1.58;;
70549;SDS011;58101;48.658;2.328;2022-12-29T14:11:23;12.82;;;1.85;;
70549;SDS011;58101;48.658;2.328;2022-12-29T14:13:56;9.27;;;1.70;;
70549;SDS011;58101;48.658;2.328;2022-12-29T14:16:26;8.73;;;1.33;;
70549;SDS011;58101;48.658;2.328;2022-12-29T14:19:38;8.57;;;1.30;;
70549;SDS011;58101;48.658;2.328;2022-12-29T14:22:03;12.45;;;1.48;;
70549;SDS011;58101;48.658;2.328;2022-12-29T14:26:59;9.43;;;1.50;;
70549;SDS011;58101;48.658;2.328;2022-12-29T14:31:54;9.77;;;1.73;;
70549;SDS011;58101;48.658;2.328;2022-12-29T14:39:33;12.43;;;1.80;;
70549;SDS011;58101;48.658;2.328;2022-12-29T14:42:11;11.20;;;1.40;;
70549;SDS011;58101;48.658;2.328;2022-12-29T14:44:59;12.55;;;1.80;;
70549;SDS011;58101;48.658;2.328;2022-12-29T14:50:24;14.85;;;1.90;;
70549;SDS011;58101;48.658;2.328;2022-12-29T14:52:56;9.70;;;1.40;;
70549;SDS011;58101;48.658;2.328;2022-12-29T15:00:49;12.90;;;1.75;;
70549;SDS011;58101;48.658;2.328;2022-12-29T15:03:23;12.38;;;1.90;;
70549;SDS011;58101;48.658;2.328;2022-12-29T15:06:27;8.95;;;1.40;;
70549;SDS011;58101;48.658;2.328;2022-12-29T15:11:22;8.82;;;1.60;;
70549;SDS011;58101;48.658;2.328;2022-12-29T15:13:49;10.48;;;1.60;;
70549;SDS011;58101;48.658;2.328;2022-12-29T15:16:33;11.15;;;1.90;;
70549;SDS011;58101;48.658;2.328;2022-12-29T15:19:01;13.27;;;1.70;;
70549;SDS011;58101;48.658;2.328;2022-12-29T15:21:30;14.18;;;1.80;;
70549;SDS011;58101;48.658;2.328;2022-12-29T15:23:58;15.88;;;1.90;;
70549;SDS011;58101;48.658;2.328;2022-12-29T15:26:38;10.40;;;1.70;;
70549;SDS011;58101;48.658;2.328;2022-12-29T15:29:05;8.50;;;1.50;;
70549;SDS011;58101;48.658;2.328;2022-12-29T15:31:50;11.27;;;2.08;;
70549;SDS011;58101;48.658;2.328;2022-12-29T15:34:16;12.68;;;2.00;;
70549;SDS011;58101;48.658;2.328;2022-12-29T15:36:46;12.90;;;1.80;;
70549;SDS011;58101;48.658;2.328;2022-12-29T15:39:26;13.15;;;1.70;;
70549;SDS011;58101;48.658;2.328;2022-12-29T15:41:55;11.95;;;1.77;;
70549;SDS011;58101;48.658;2.328;2022-12-29T15:44:40;12.70;;;2.53;;
70549;SDS011;58101;48.658;2.328;2022-12-29T15:47:15;17.35;;;2.30;;
70549;SDS011;58101;48.658;2.328;2022-12-29T15:49:54;10.02;;;2.00;;
70549;SDS011;58101;48.658;2.328;2022-12-29T15:52:49;16.67;;;2.13;;
70549;SDS011;58101;48.658;2.328;2022-12-29T15:55:19;9.35;;;1.90;;
70549;SDS011;58101;48.658;2.328;2022-12-29T15:57:48;14.23;;;2.22;;
70549;SDS011;58101;48.658;2.328;2022-12-29T16:00:21;12.52;;;2.47;;
70549;SDS011;58101;48.658;2.328;2022-12-29T16:02:50;8.05;;;1.50;;
70549;SDS011;58101;48.658;2.328;2022-12-29T16:05:17;13.95;;;2.17;;
70549;SDS011;58101;48.658;2.328;2022-12-29T16:07:53;10.95;;;1.90;;
70549;SDS011;58101;48.658;2.328;2022-12-29T16:10:42;10.43;;;2.25;;
70549;SDS011;58101;48.658;2.328;2022-12-29T16:15:56;12.45;;;2.50;;
70549;SDS011;58101;48.658;2.328;2022-12-29T16:18:35;15.18;;;3.20;;
70549;SDS011;58101;48.658;2.328;2022-12-29T16:21:03;14.75;;;2.25;;
70549;SDS011;58101;48.658;2.328;2022-12-29T16:23:30;11.90;;;2.58;;
70549;SDS011;58101;48.658;2.328;2022-12-29T16:25:57;16.42;;;2.38;;
70549;SDS011;58101;48.658;2.328;2022-12-29T16:28:24;12.68;;;2.55;;
70549;SDS011;58101;48.658;2.328;2022-12-29T16:31:21;12.88;;;2.38;;
70549;SDS011;58101;48.658;2.328;2022-12-29T16:33:52;12.70;;;2.63;;
70549;SDS011;58101;48.658;2.328;2022-12-29T16:36:24;14.68;;;2.70;;
70549;SDS011;58101;48.658;2.328;2022-12-29T16:38:50;12.90;;;3.63;;
70549;SDS011;58101;48.658;2.328;2022-12-29T16:41:30;49.88;;;16.88;;
70549;SDS011;58101;48.658;2.328;2022-12-29T16:44:12;36.75;;;12.43;;
70549;SDS011;58101;48.658;2.328;2022-12-29T16:46:44;23.67;;;8.05;;
70549;SDS011;58101;48.658;2.328;2022-12-29T16:49:20;14.50;;;4.15;;
70549;SDS011;58101;48.658;2.328;2022-12-29T16:51:46;15.82;;;4.53;;
70549;SDS011;58101;48.658;2.328;2022-12-29T16:54:19;16.98;;;4.30;;
70549;SDS011;58101;48.658;2.328;2022-12-29T16:56:57;17.38;;;4.63;;
70549;SDS011;58101;48.658;2.328;2022-12-29T17:01:48;15.25;;;4.47;;
70549;SDS011;58101;48.658;2.328;2022-12-29T17:04:14;22.15;;;6.40;;
70549;SDS011;58101;48.658;2.328;2022-12-29T17:06:39;16.60;;;4.40;;
70549;SDS011;58101;48.658;2.328;2022-12-29T17:09:22;15.88;;;3.58;;
70549;SDS011;58101;48.658;2.328;2022-12-29T17:11:51;12.32;;;3.00;;
70549;SDS011;58101;48.658;2.328;2022-12-29T17:17:10;16.23;;;4.28;;
70549;SDS011;58101;48.658;2.328;2022-12-29T17:19:49;15.75;;;2.92;;
70549;SDS011;58101;48.658;2.328;2022-12-29T17:22:24;15.65;;;3.65;;
70549;SDS011;58101;48.658;2.328;2022-12-29T17:24:55;21.02;;;7.82;;
70549;SDS011;58101;48.658;2.328;2022-12-29T17:27:24;30.85;;;14.35;;
70549;SDS011;58101;48.658;2.328;2022-12-29T17:29:56;18.45;;;4.63;;
70549;SDS011;58101;48.658;2.328;2022-12-29T17:32:25;13.75;;;2.80;;
70549;SDS011;58101;48.658;2.328;2022-12-29T17:34:50;14.02;;;3.53;;
70549;SDS011;58101;48.658;2.328;2022-12-29T17:37:23;19.20;;;5.05;;
70549;SDS011;58101;48.658;2.328;2022-12-29T17:39:53;15.70;;;3.45;;
70549;SDS011;58101;48.658;2.328;2022-12-29T17:42:19;14.93;;;4.13;;
70549;SDS011;58101;48.658;2.328;2022-12-29T17:44:44;17.85;;;3.33;;
70549;SDS011;58101;48.658;2.328;2022-12-29T17:47:10;14.60;;;3.20;;
70549;SDS011;58101;48.658;2.328;2022-12-29T17:49:40;18.67;;;3.60;;